createdAt,value
2018-12-15T00:03:17.185Z,41.79
2018-12-15T00:07:23.250Z,42.68
2018-12-15T00:11:27.337Z,43.63
2018-12-15T00:15:47.965Z,42.13
2018-12-15T00:19:52.105Z,42.69
2018-12-15T00:23:56.214Z,41.71
2018-12-15T00:28:00.301Z,40.71
2018-12-15T00:32:04.412Z,41.61
2018-12-15T00:36:08.486Z,42.08
2018-12-15T00:40:12.712Z,42.14
2018-12-15T00:44:16.816Z,42.90
2018-12-15T00:48:20.976Z,42.72
2018-12-15T00:52:25.070Z,42.87
2018-12-15T00:56:29.157Z,44.98
2018-12-15T01:05:08.373Z,41.09
2018-12-15T01:13:49.849Z,41.46
2018-12-15T01:17:53.931Z,41.11
2018-12-15T01:21:58.025Z,40.28
2018-12-15T01:26:02.112Z,41.43
2018-12-15T01:30:06.789Z,42.96
2018-12-15T01:34:10.979Z,40.30
2018-12-15T01:38:15.129Z,43.11
2018-12-15T01:42:19.266Z,41.94
2018-12-15T01:46:23.379Z,41.16
2018-12-15T01:50:27.472Z,40.28
2018-12-15T01:54:31.609Z,40.84
2018-12-15T01:58:35.703Z,40.30
2018-12-15T02:02:39.865Z,40.29
2018-12-15T02:06:48.740Z,41.02
2018-12-15T02:10:52.843Z,40.39
2018-12-15T02:14:56.979Z,40.75
2018-12-15T02:19:01.061Z,41.58
2018-12-15T02:23:05.149Z,43.62
2018-12-15T02:27:09.238Z,42.35
2018-12-15T02:31:13.353Z,41.27
2018-12-15T02:35:17.401Z,41.17
2018-12-15T02:39:21.595Z,41.40
2018-12-15T02:43:25.760Z,42.74
2018-12-15T02:47:29.851Z,42.47
2018-12-15T02:51:33.955Z,42.94
2018-12-15T02:55:38.029Z,41.05
2018-12-15T02:59:42.165Z,41.55
2018-12-15T03:03:46.244Z,41.96
2018-12-15T03:07:50.330Z,42.82
2018-12-15T03:11:54.428Z,42.74
2018-12-15T03:15:58.593Z,42.01
2018-12-15T03:20:02.821Z,41.80
2018-12-15T03:24:06.926Z,41.65
2018-12-15T03:28:11.022Z,41.47
2018-12-15T03:32:15.241Z,41.91
2018-12-15T03:36:19.345Z,42.73
2018-12-15T03:40:23.472Z,41.81
2018-12-15T03:44:27.554Z,42.36
2018-12-15T03:48:31.706Z,41.75
2018-12-15T03:52:48.429Z,43.10
2018-12-15T03:56:52.554Z,42.41
2018-12-15T04:00:57.077Z,42.88
2018-12-15T04:05:01.173Z,42.52
2018-12-15T04:09:06.598Z,42.34
2018-12-15T04:13:11.108Z,43.75
2018-12-15T04:17:15.271Z,42.89
2018-12-15T04:21:19.427Z,42.38
2018-12-15T04:25:23.528Z,42.61
2018-12-15T04:29:27.682Z,43.00
2018-12-15T04:33:31.777Z,44.13
2018-12-15T04:37:35.931Z,42.56
2018-12-15T04:41:40.088Z,42.49
2018-12-15T04:45:44.157Z,42.22
2018-12-15T04:49:48.248Z,42.93
2018-12-15T04:53:52.348Z,42.15
2018-12-15T04:57:56.454Z,43.22
2018-12-15T05:02:00.558Z,42.91
2018-12-15T05:06:04.650Z,42.21
2018-12-15T05:14:46.721Z,41.85
2018-12-15T05:18:50.845Z,41.01
2018-12-15T05:31:50.201Z,42.27
2018-12-15T05:35:54.389Z,42.31
2018-12-15T05:44:36.494Z,42.97
2018-12-15T05:48:48.877Z,43.50
2018-12-15T05:52:52.973Z,42.14
2018-12-15T05:56:57.129Z,41.95
2018-12-15T06:05:48.844Z,43.00
2018-12-15T06:09:52.943Z,42.85
2018-12-15T06:13:57.092Z,42.23
2018-12-15T06:18:01.198Z,42.55
2018-12-15T06:26:49.283Z,42.74
2018-12-15T06:30:53.428Z,41.98
2018-12-15T06:34:57.502Z,42.85
2018-12-15T06:39:01.622Z,42.21
2018-12-15T06:47:49.448Z,42.47
2018-12-15T06:51:53.573Z,43.58
2018-12-15T06:55:57.640Z,43.10
2018-12-15T07:00:01.740Z,43.67
2018-12-15T07:08:48.613Z,43.06
2018-12-15T07:12:52.768Z,43.42
2018-12-15T07:16:56.847Z,42.79
2018-12-15T07:21:06.421Z,43.72
2018-12-15T07:29:49.467Z,42.46
2018-12-15T07:33:53.577Z,41.66
2018-12-15T07:37:57.671Z,42.35
2018-12-15T07:42:01.772Z,41.85
2018-12-15T07:50:48.642Z,43.21
2018-12-15T07:54:52.745Z,42.03
2018-12-15T07:58:56.853Z,41.88
2018-12-15T08:03:00.922Z,41.86
2018-12-15T08:11:54.329Z,42.02
2018-12-15T08:15:58.436Z,41.68
2018-12-15T08:20:02.874Z,40.91
2018-12-15T08:28:47.804Z,40.75
2018-12-15T08:32:51.872Z,41.95
2018-12-15T08:36:55.974Z,41.44
2018-12-15T08:41:00.057Z,40.84
2018-12-15T08:45:04.691Z,40.70
2018-12-15T08:53:47.712Z,41.36
2018-12-15T08:57:51.806Z,41.37
2018-12-15T09:01:56.054Z,40.83
2018-12-15T09:06:00.128Z,41.86
2018-12-15T09:10:04.409Z,43.70
2018-12-15T09:18:49.278Z,42.19
2018-12-15T09:22:53.365Z,43.31
2018-12-15T09:40:48.762Z,41.17
2018-12-15T10:12:05.713Z,43.00
2018-12-15T10:16:09.815Z,44.52
2018-12-15T10:20:13.931Z,43.41
2018-12-15T10:24:18.039Z,42.11
2018-12-15T10:28:22.203Z,42.97
2018-12-15T10:32:31.813Z,42.64
2018-12-15T10:36:35.912Z,42.39
2018-12-15T10:40:40.014Z,42.38
2018-12-15T10:44:44.109Z,43.18
2018-12-15T10:48:48.190Z,45.34
2018-12-15T10:52:52.283Z,43.94
2018-12-15T10:56:56.410Z,42.05
2018-12-15T11:05:26.121Z,42.05
2018-12-15T11:09:30.217Z,40.80
2018-12-15T11:13:34.290Z,41.98
2018-12-15T11:17:38.413Z,41.46
2018-12-15T11:21:42.520Z,40.12
2018-12-15T11:25:46.693Z,39.49
2018-12-15T11:29:50.774Z,40.36
2018-12-15T11:33:54.900Z,39.59
2018-12-15T11:37:58.991Z,39.51
2018-12-15T11:42:03.165Z,39.46
2018-12-15T11:46:07.260Z,40.27
2018-12-15T11:50:11.405Z,40.75
2018-12-15T11:54:15.523Z,40.13
2018-12-15T11:58:19.588Z,41.43
2018-12-15T12:02:23.681Z,41.06
2018-12-15T12:06:27.764Z,40.37
2018-12-15T12:10:31.853Z,41.25
2018-12-15T12:14:35.945Z,41.89
2018-12-15T12:18:40.045Z,41.34
2018-12-15T12:22:44.228Z,42.13
2018-12-15T12:26:48.314Z,42.72
2018-12-15T12:30:52.490Z,42.33
2018-12-15T12:34:56.557Z,42.36
2018-12-15T12:39:00.635Z,40.72
2018-12-15T12:43:04.802Z,40.52
2018-12-15T12:47:08.905Z,40.73
2018-12-15T12:51:13.022Z,40.45
2018-12-15T12:55:17.181Z,40.97
2018-12-15T12:59:21.279Z,41.07
2018-12-15T13:03:25.406Z,41.60
2018-12-15T13:07:29.498Z,41.79
2018-12-15T13:11:33.588Z,40.08
2018-12-15T13:15:37.813Z,40.79
2018-12-15T13:19:41.995Z,40.71
2018-12-15T13:23:46.391Z,39.63
2018-12-15T13:27:50.493Z,40.87
2018-12-15T13:31:54.572Z,40.15
2018-12-15T13:35:58.812Z,39.60
2018-12-15T13:40:05.058Z,39.67
2018-12-15T13:44:09.152Z,39.71
2018-12-15T13:48:13.345Z,40.04
2018-12-15T13:56:49.894Z,41.23
2018-12-15T14:05:32.054Z,41.66
2018-12-15T14:09:47.822Z,41.32
2018-12-15T14:13:51.959Z,42.17
2018-12-15T14:17:56.057Z,42.16
2018-12-15T14:26:20.541Z,41.08
2018-12-15T14:30:30.180Z,40.52
2018-12-15T14:34:47.912Z,40.87
2018-12-15T14:38:52.030Z,40.09
2018-12-15T14:42:56.121Z,40.59
2018-12-15T14:47:00.223Z,40.90
2018-12-15T14:51:04.344Z,40.33
2018-12-15T14:59:48.346Z,42.29
2018-12-15T15:03:52.454Z,42.40
2018-12-15T15:07:56.561Z,41.67
2018-12-15T15:12:00.648Z,42.38
2018-12-15T15:16:04.737Z,41.72
2018-12-15T15:20:09.941Z,41.24
2018-12-15T15:24:14.009Z,41.66
2018-12-15T15:28:47.318Z,42.13
2018-12-15T15:32:51.422Z,43.62
2018-12-15T15:36:55.509Z,43.16
2018-12-15T15:40:59.661Z,43.36
2018-12-15T15:45:04.227Z,42.84
2018-12-15T15:49:08.322Z,42.99
2018-12-15T15:53:12.454Z,41.09
2018-12-15T15:57:16.538Z,41.16
2018-12-15T16:01:47.752Z,41.21
2018-12-15T16:05:51.847Z,42.00
2018-12-15T16:09:55.998Z,41.78
2018-12-15T16:14:00.101Z,42.33
2018-12-15T16:18:04.408Z,41.12
2018-12-15T16:22:08.569Z,41.22
2018-12-15T16:26:12.661Z,40.50
2018-12-15T16:30:16.815Z,40.40
2018-12-15T16:34:47.048Z,40.78
2018-12-15T16:38:51.199Z,40.84
2018-12-15T16:42:55.291Z,40.86
2018-12-15T16:46:59.450Z,41.81
2018-12-15T16:51:03.628Z,40.98
2018-12-15T16:55:08.265Z,41.74
2018-12-15T16:59:12.342Z,41.68
2018-12-15T17:03:16.913Z,41.59
2018-12-15T17:07:21.006Z,42.19
2018-12-15T17:11:48.464Z,42.56
2018-12-15T17:15:52.567Z,43.27
2018-12-15T17:19:56.697Z,42.36
2018-12-15T17:24:00.795Z,43.81
2018-12-15T17:28:04.945Z,44.83
2018-12-15T17:32:09.034Z,44.25
2018-12-15T17:36:13.101Z,44.21
2018-12-15T17:44:49.258Z,42.71
2018-12-15T17:48:53.345Z,42.50
2018-12-15T17:52:57.442Z,43.34
2018-12-15T18:11:07.403Z,44.15
2018-12-15T18:15:11.562Z,45.00
2018-12-15T18:19:15.756Z,44.40
2018-12-15T18:23:19.841Z,45.29
2018-12-15T18:27:23.909Z,45.88
2018-12-15T18:31:29.002Z,45.33
2018-12-15T18:35:33.094Z,44.23
2018-12-15T18:39:37.250Z,45.38
2018-12-15T18:43:41.349Z,44.78
2018-12-15T18:47:46.534Z,44.20
2018-12-15T18:51:50.613Z,44.37
2018-12-15T18:55:54.714Z,43.08
2018-12-15T18:59:58.800Z,42.61
2018-12-15T19:04:02.925Z,42.54
2018-12-15T19:08:07.048Z,43.66
2018-12-15T19:12:11.141Z,43.81
2018-12-15T19:16:15.213Z,43.89
2018-12-15T19:20:20.377Z,43.53
2018-12-15T19:24:24.477Z,43.41
2018-12-15T19:28:28.609Z,43.72
2018-12-15T19:32:32.698Z,43.70
2018-12-15T19:36:36.757Z,43.70
2018-12-15T19:40:40.901Z,44.25
2018-12-15T19:44:46.078Z,44.34
2018-12-15T19:48:50.175Z,44.64
2018-12-15T19:52:54.268Z,45.46
2018-12-15T19:56:58.382Z,44.71
2018-12-15T20:01:02.464Z,45.62
2018-12-15T20:05:06.669Z,44.14
2018-12-15T20:09:10.969Z,44.26
2018-12-15T20:13:15.096Z,43.38
2018-12-15T20:17:19.182Z,43.15
2018-12-15T20:21:23.293Z,44.08
2018-12-15T20:25:27.413Z,44.83
2018-12-15T20:29:31.488Z,44.88
2018-12-15T20:33:35.691Z,43.86
2018-12-15T20:37:39.770Z,44.07
2018-12-15T20:41:43.854Z,43.66
2018-12-15T20:45:47.945Z,42.63
2018-12-15T20:49:52.041Z,42.94
2018-12-15T20:53:56.129Z,43.62
2018-12-15T20:58:00.220Z,44.05
2018-12-15T21:02:04.528Z,44.80
2018-12-15T21:06:08.625Z,43.72
2018-12-15T21:10:12.924Z,44.30
2018-12-15T21:14:17.036Z,44.01
2018-12-15T21:18:21.120Z,43.79
2018-12-15T21:22:25.250Z,43.39
2018-12-15T21:26:29.425Z,44.00
2018-12-15T21:30:33.577Z,44.74
2018-12-15T21:34:37.667Z,43.48
2018-12-15T21:38:41.767Z,42.87
2018-12-15T21:42:45.903Z,42.90
2018-12-15T21:46:50.016Z,42.17
2018-12-15T21:50:54.097Z,43.64
2018-12-15T21:54:58.175Z,42.95
2018-12-15T21:59:02.378Z,43.71
2018-12-15T22:03:06.529Z,44.45
2018-12-15T22:07:10.727Z,44.65
2018-12-15T22:11:14.869Z,44.23
2018-12-15T22:15:46.958Z,43.43
2018-12-15T22:19:51.088Z,45.19
2018-12-15T22:28:48.854Z,44.47
2018-12-15T22:37:48.494Z,44.51
2018-12-15T22:41:53.661Z,44.02
2018-12-15T22:50:48.432Z,43.61
2018-12-15T23:03:50.149Z,43.51
2018-12-15T23:07:59.880Z,44.43
2018-12-15T23:16:48.758Z,44.28
2018-12-15T23:20:52.893Z,43.75
2018-12-15T23:29:48.473Z,43.05
2018-12-15T23:33:52.629Z,42.56
2018-12-15T23:37:56.719Z,44.09
2018-12-15T23:42:00.854Z,44.44
2018-12-15T23:50:48.750Z,43.45
2018-12-15T23:54:53.831Z,43.43
2018-12-15T23:58:57.978Z,43.67
